Time;durP1;ratioP1;P1;durP2;ratioP2;P2;SDS_P1;SDS_P2;PMS_P1;PMS_P2;Temp;Humidity;BMP_temperature;BMP_pressure;BME280_temperature;BME280_humidity;BME280_pressure;Samples;Min_cycle;Max_cycle;Signal;HPM_P1;HPM_P2
2022/03/17 00:00:16;;;;;;;41.70;18.83;;;12.40;99.90;;;;;;5046614;28;22167;-68
2022/03/17 00:02:42;;;;;;;39.30;20.35;;;12.40;99.90;;;;;;5046920;28;20044;-68
2022/03/17 00:05:12;;;;;;;37.15;19.48;;;12.40;99.90;;;;;;5048822;28;20037;-68
2022/03/17 00:07:40;;;;;;;32.92;19.98;;;12.40;99.90;;;;;;5048922;28;20492;-68
2022/03/17 00:10:09;;;;;;;37.38;19.85;;;12.40;99.90;;;;;;5054962;28;20064;-68
2022/03/17 00:12:36;;;;;;;39.38;19.38;;;12.40;99.90;;;;;;5046309;28;20033;-68
2022/03/17 00:15:04;;;;;;;34.05;19.90;;;12.40;99.90;;;;;;5044295;28;20055;-68
2022/03/17 00:17:30;;;;;;;42.97;20.48;;;12.50;99.90;;;;;;5048359;28;20040;-68
2022/03/17 00:19:56;;;;;;;41.30;21.55;;;12.50;99.90;;;;;;5064127;28;20028;-68
2022/03/17 00:22:22;;;;;;;36.58;20.30;;;12.50;99.90;;;;;;5045947;28;20040;-68
2022/03/17 00:24:48;;;;;;;38.00;21.30;;;12.50;99.90;;;;;;5045637;28;20268;-68
2022/03/17 00:27:13;;;;;;;30.92;19.02;;;12.50;99.90;;;;;;5046038;28;20109;-68
2022/03/17 00:29:42;;;;;;;33.95;19.58;;;12.60;99.90;;;;;;5046059;28;20079;-68
2022/03/17 00:32:09;;;;;;;33.03;19.67;;;12.60;99.90;;;;;;5048501;28;20401;-68
2022/03/17 00:35:35;;;;;;;37.55;19.52;;;12.60;99.90;;;;;;5046133;28;20037;-68
2022/03/17 00:37:23;;;;;;;35.03;17.83;;;12.60;99.90;;;;;;5043240;28;20033;-68
2022/03/17 00:39:50;;;;;;;35.03;18.70;;;12.60;99.90;;;;;;5043321;28;20028;-68
2022/03/17 00:42:16;;;;;;;29.73;17.13;;;12.60;99.90;;;;;;5059822;28;20039;-67
2022/03/17 00:44:42;;;;;;;32.20;16.38;;;12.50;99.90;;;;;;5044213;28;20055;-68
2022/03/17 00:47:08;;;;;;;27.27;16.45;;;12.50;99.90;;;;;;5050633;28;20032;-68
2022/03/17 00:49:34;;;;;;;35.38;18.52;;;12.50;99.90;;;;;;5063967;28;20413;-68
2022/03/17 00:52:00;;;;;;;36.33;20.42;;;12.50;99.90;;;;;;5047338;28;20044;-68
2022/03/17 00:54:26;;;;;;;32.95;20.65;;;12.40;99.90;;;;;;5047734;28;20448;-68
2022/03/17 00:56:52;;;;;;;40.25;21.10;;;12.30;99.90;;;;;;5049699;28;20546;-68
2022/03/17 00:59:18;;;;;;;39.08;20.50;;;12.30;99.90;;;;;;5045436;28;20029;-68
2022/03/17 01:01:44;;;;;;;28.90;16.45;;;12.30;99.90;;;;;;5044632;28;20091;-68
2022/03/17 01:04:10;;;;;;;31.00;16.67;;;12.30;99.90;;;;;;5048819;28;20041;-67
2022/03/17 01:06:36;;;;;;;26.15;14.18;;;12.30;99.90;;;;;;5046683;28;20497;-68
2022/03/17 01:09:02;;;;;;;31.23;15.50;;;12.30;99.90;;;;;;5043458;28;20028;-68
2022/03/17 01:11:28;;;;;;;31.00;14.75;;;12.30;99.90;;;;;;5043910;28;20033;-69
2022/03/17 01:13:53;;;;;;;25.02;14.23;;;12.30;99.90;;;;;;5042732;28;20052;-68
2022/03/17 01:16:19;;;;;;;31.45;14.23;;;12.30;99.90;;;;;;5047109;28;20120;-67
2022/03/17 01:18:45;;;;;;;23.90;12.55;;;12.40;99.90;;;;;;5046851;28;20035;-68
2022/03/17 01:21:10;;;;;;;27.38;13.70;;;12.40;99.90;;;;;;5042426;28;20087;-67
2022/03/17 01:23:36;;;;;;;30.70;14.00;;;12.40;99.90;;;;;;5045166;28;20033;-67
2022/03/17 01:26:02;;;;;;;27.45;14.07;;;12.40;99.90;;;;;;5044169;28;20052;-68
2022/03/17 01:28:28;;;;;;;29.88;14.55;;;12.50;99.90;;;;;;5045852;28;20476;-68
2022/03/17 01:30:54;;;;;;;28.52;14.60;;;12.40;99.90;;;;;;5045784;28;20036;-68
2022/03/17 01:33:20;;;;;;;22.83;14.40;;;12.40;99.90;;;;;;5051403;28;20037;-66
2022/03/17 01:35:46;;;;;;;24.10;14.95;;;12.30;99.90;;;;;;5048232;28;20068;-67
2022/03/17 01:38:11;;;;;;;26.83;14.00;;;12.30;99.90;;;;;;5043661;28;20115;-67
2022/03/17 01:40:37;;;;;;;26.10;14.23;;;12.20;99.90;;;;;;5041917;28;20104;-67
2022/03/17 01:43:03;;;;;;;29.25;15.63;;;12.10;99.90;;;;;;5043644;28;20029;-67
2022/03/17 01:45:29;;;;;;;30.55;16.20;;;12.10;99.90;;;;;;5047171;28;20040;-67
2022/03/17 01:47:55;;;;;;;30.73;15.73;;;11.90;99.90;;;;;;5049249;28;20032;-68
2022/03/17 01:50:21;;;;;;;26.50;16.17;;;11.80;99.90;;;;;;5053002;28;20040;-67
2022/03/17 01:52:47;;;;;;;27.95;16.90;;;11.80;99.90;;;;;;5043651;28;20458;-67
2022/03/17 01:55:17;;;;;;;26.92;17.23;;;11.80;99.90;;;;;;5043998;28;20486;-67
2022/03/17 01:57:43;;;;;;;31.55;16.90;;;11.70;99.90;;;;;;5047472;28;20037;-67
2022/03/17 02:00:13;;;;;;;32.63;17.30;;;11.70;99.90;;;;;;5048564;28;20107;-67
2022/03/17 02:02:43;;;;;;;33.42;18.17;;;11.60;99.90;;;;;;5047735;28;20032;-66
2022/03/17 02:05:09;;;;;;;28.00;17.05;;;11.60;99.90;;;;;;5044426;28;20033;-67
2022/03/17 02:07:35;;;;;;;28.13;17.42;;;11.50;99.90;;;;;;5043474;28;20119;-66
2022/03/17 02:10:01;;;;;;;29.23;16.08;;;11.60;99.90;;;;;;5044149;28;20036;-67
2022/03/17 02:15:11;;;;;;;28.20;17.83;;;11.50;99.90;;;;;;5048588;28;20094;-68
2022/03/17 02:17:42;;;;;;;32.50;18.83;;;11.50;99.90;;;;;;5043533;28;20033;-67
2022/03/17 02:20:13;;;;;;;26.65;19.00;;;11.40;99.90;;;;;;5044892;28;20061;-66
2022/03/17 02:22:50;;;;;;;32.00;19.20;;;11.40;99.90;;;;;;5045206;28;20036;-66
2022/03/17 02:25:33;;;;;;;27.95;19.23;;;11.40;99.90;;;;;;5048021;28;20053;-66
2022/03/17 02:28:02;;;;;;;29.67;19.42;;;11.40;99.90;;;;;;5049169;28;20053;-66
2022/03/17 02:30:28;;;;;;;27.38;17.77;;;11.50;99.90;;;;;;5045244;28;20029;-66
2022/03/17 02:33:16;;;;;;;30.00;18.38;;;11.60;99.90;;;;;;5052022;28;20056;-66
2022/03/17 02:35:44;;;;;;;27.63;17.73;;;11.60;99.90;;;;;;5049101;28;20098;-66
2022/03/17 02:38:14;;;;;;;31.10;18.40;;;11.60;99.90;;;;;;5045823;28;20037;-67
2022/03/17 02:40:42;;;;;;;30.15;18.38;;;11.50;99.90;;;;;;5048232;28;20084;-66
2022/03/17 02:43:09;;;;;;;29.55;19.67;;;11.50;99.90;;;;;;5052863;28;20040;-66
2022/03/17 02:45:35;;;;;;;30.48;17.98;;;11.50;99.90;;;;;;5054692;28;20040;-66
2022/03/17 02:48:05;;;;;;;27.65;18.95;;;11.50;99.90;;;;;;5047503;28;20508;-67
2022/03/17 02:50:32;;;;;;;32.15;18.98;;;11.50;99.90;;;;;;5045246;28;20039;-66
2022/03/17 02:53:04;;;;;;;29.85;19.55;;;11.50;99.90;;;;;;5045005;28;20478;-67
2022/03/17 02:55:37;;;;;;;31.73;18.40;;;11.50;99.90;;;;;;5051418;28;20037;-67
2022/03/17 02:58:08;;;;;;;33.10;19.48;;;11.40;99.90;;;;;;5054969;28;20048;-66
2022/03/17 03:00:35;;;;;;;30.35;19.65;;;11.40;99.90;;;;;;5051827;28;20047;-67
2022/03/17 03:03:01;;;;;;;36.53;20.27;;;11.50;99.90;;;;;;5050809;28;20029;-66
2022/03/17 03:05:28;;;;;;;37.63;18.95;;;11.50;99.90;;;;;;5049743;28;20035;-66
2022/03/17 03:07:54;;;;;;;31.88;19.20;;;11.50;99.90;;;;;;5048264;28;20053;-66
2022/03/17 03:10:20;;;;;;;35.45;19.00;;;11.60;99.90;;;;;;5053704;28;20037;-66
2022/03/17 03:12:46;;;;;;;29.23;17.65;;;11.60;99.90;;;;;;5052761;28;20546;-66
2022/03/17 03:15:13;;;;;;;28.63;18.05;;;11.70;99.90;;;;;;5048250;28;20045;-67
2022/03/17 03:17:38;;;;;;;33.15;16.90;;;11.70;99.90;;;;;;5045274;28;20044;-66
2022/03/17 03:20:06;;;;;;;30.90;16.33;;;11.90;99.90;;;;;;5051390;28;20405;-66
2022/03/17 03:22:39;;;;;;;31.75;15.65;;;12.00;99.90;;;;;;5054131;28;20082;-67
2022/03/17 03:25:06;;;;;;;31.00;15.32;;;12.00;99.90;;;;;;5054493;28;20024;-67
2022/03/17 03:27:32;;;;;;;27.60;14.25;;;12.00;99.90;;;;;;5053582;28;20089;-67
2022/03/17 03:29:58;;;;;;;31.30;14.45;;;12.10;99.90;;;;;;5054876;28;20116;-67
2022/03/17 03:32:27;;;;;;;28.98;15.00;;;12.10;99.90;;;;;;5054341;28;20025;-67
2022/03/17 03:34:53;;;;;;;29.83;15.45;;;12.10;99.90;;;;;;5052742;28;20040;-68
2022/03/17 03:37:25;;;;;;;32.53;14.98;;;12.20;99.90;;;;;;5052028;28;20048;-66
2022/03/17 03:39:57;;;;;;;34.47;14.63;;;12.10;99.90;;;;;;5053560;28;20099;-67
2022/03/17 03:42:25;;;;;;;33.90;15.98;;;12.10;99.90;;;;;;5053303;28;20519;-67
2022/03/17 03:44:51;;;;;;;28.80;15.43;;;12.10;99.90;;;;;;5054132;28;20079;-68
2022/03/17 03:47:18;;;;;;;32.33;15.68;;;12.20;99.90;;;;;;5054339;28;20035;-67
2022/03/17 03:49:44;;;;;;;31.35;15.65;;;12.20;99.90;;;;;;5053657;28;20029;-67
2022/03/17 03:52:12;;;;;;;35.53;15.73;;;12.10;99.90;;;;;;5054197;28;20048;-67
2022/03/17 03:54:39;;;;;;;29.25;15.70;;;12.10;99.90;;;;;;5053696;28;20033;-67
2022/03/17 03:57:06;;;;;;;31.10;16.38;;;12.10;99.90;;;;;;5053020;28;20397;-67
2022/03/17 03:59:33;;;;;;;31.77;18.45;;;12.10;99.90;;;;;;5051776;28;20028;-65
2022/03/17 04:02:01;;;;;;;33.90;18.02;;;12.00;99.90;;;;;;5053132;28;20447;-66
2022/03/17 04:04:27;;;;;;;33.92;17.38;;;11.90;99.90;;;;;;5053596;28;20599;-67
2022/03/17 04:06:59;;;;;;;37.60;17.70;;;11.90;99.90;;;;;;5054387;28;20068;-67
2022/03/17 04:09:27;;;;;;;34.40;18.35;;;12.00;99.90;;;;;;5054162;28;20032;-67
2022/03/17 04:11:54;;;;;;;42.78;17.75;;;11.90;99.90;;;;;;5054158;28;20042;-67
2022/03/17 04:14:20;;;;;;;38.45;18.98;;;11.90;99.90;;;;;;5054408;28;20095;-67
2022/03/17 04:16:47;;;;;;;40.45;19.02;;;11.90;99.90;;;;;;5053458;28;20547;-67
2022/03/17 04:19:15;;;;;;;40.03;18.45;;;11.90;99.90;;;;;;5053110;28;20025;-66
2022/03/17 04:21:41;;;;;;;44.92;19.50;;;11.90;99.90;;;;;;5053002;28;20041;-68
2022/03/17 04:24:07;;;;;;;32.45;18.65;;;11.90;99.90;;;;;;5053222;28;20142;-67
2022/03/17 04:26:33;;;;;;;39.17;18.60;;;11.90;99.90;;;;;;5051040;28;20569;-67
2022/03/17 04:28:59;;;;;;;43.67;20.73;;;11.90;99.90;;;;;;5052350;28;20397;-67
2022/03/17 04:31:24;;;;;;;39.53;20.42;;;11.80;99.90;;;;;;5053689;28;20096;-68
2022/03/17 04:33:51;;;;;;;39.55;20.33;;;11.80;99.90;;;;;;5053283;28;20033;-68
2022/03/17 04:36:18;;;;;;;37.75;20.67;;;11.80;99.90;;;;;;5053069;28;20547;-68
2022/03/17 04:38:44;;;;;;;42.72;19.38;;;11.80;99.90;;;;;;5053713;28;20029;-67
2022/03/17 04:41:10;;;;;;;39.47;19.30;;;11.80;99.90;;;;;;5052905;28;20465;-68
2022/03/17 04:43:37;;;;;;;42.28;17.70;;;11.80;99.90;;;;;;5051613;28;20057;-68
2022/03/17 04:46:03;;;;;;;40.70;18.00;;;11.90;99.90;;;;;;5054072;28;20040;-67
2022/03/17 04:48:31;;;;;;;39.00;18.83;;;11.90;99.90;;;;;;5053274;28;20033;-68
2022/03/17 04:50:57;;;;;;;34.15;18.27;;;11.80;99.90;;;;;;5053514;28;20025;-67
2022/03/17 04:53:32;;;;;;;37.97;18.83;;;11.80;99.90;;;;;;5052747;28;20039;-68
2022/03/17 04:56:02;;;;;;;33.70;18.50;;;11.80;99.90;;;;;;5048094;28;20120;-68
2022/03/17 04:58:30;;;;;;;30.73;16.50;;;11.80;99.90;;;;;;5053966;28;20477;-67
2022/03/17 05:00:57;;;;;;;36.90;16.40;;;11.80;99.90;;;;;;5053107;28;20029;-68
2022/03/17 05:03:23;;;;;;;42.78;18.05;;;11.80;99.90;;;;;;5053019;28;20029;-67
2022/03/17 05:05:50;;;;;;;31.98;16.73;;;11.80;99.90;;;;;;5053387;28;20036;-67
2022/03/17 05:08:16;;;;;;;33.33;17.33;;;11.80;99.90;;;;;;5052245;28;20484;-68
2022/03/17 05:10:43;;;;;;;40.33;16.65;;;11.90;99.90;;;;;;5042453;28;20021;-67
2022/03/17 05:13:10;;;;;;;39.28;16.70;;;11.90;99.90;;;;;;5051924;28;20036;-68
2022/03/17 05:15:37;;;;;;;41.22;17.77;;;11.90;99.90;;;;;;5054648;28;20135;-68
2022/03/17 05:18:07;;;;;;;32.28;16.77;;;11.90;99.90;;;;;;5053195;28;20100;-68
2022/03/17 05:20:35;;;;;;;37.47;17.10;;;11.90;99.90;;;;;;5052877;28;20111;-68
2022/03/17 05:23:07;;;;;;;37.75;17.30;;;11.90;99.90;;;;;;5047869;28;20033;-68
2022/03/17 05:25:32;;;;;;;32.92;17.33;;;11.90;99.90;;;;;;5050125;28;20037;-68
2022/03/17 05:27:59;;;;;;;33.28;17.50;;;11.90;99.90;;;;;;5047899;28;20075;-68
2022/03/17 05:30:26;;;;;;;31.92;17.67;;;11.90;99.90;;;;;;5049342;28;20034;-68
2022/03/17 05:32:52;;;;;;;28.73;17.05;;;11.90;99.90;;;;;;5044995;28;20036;-68
2022/03/17 05:35:18;;;;;;;32.38;17.10;;;11.90;99.90;;;;;;5048392;28;20098;-68
2022/03/17 05:37:44;;;;;;;36.00;16.65;;;11.90;99.90;;;;;;5046588;28;20037;-68
2022/03/17 05:40:15;;;;;;;31.02;15.88;;;11.90;99.90;;;;;;5049037;28;20043;-68
2022/03/17 05:43:03;;;;;;;35.78;16.75;;;11.90;99.90;;;;;;5047813;28;20108;-68
2022/03/17 05:45:29;;;;;;;36.95;15.88;;;11.90;99.90;;;;;;5048111;28;20168;-68
2022/03/17 05:47:58;;;;;;;32.78;16.58;;;11.90;99.90;;;;;;5052736;28;20025;-68
2022/03/17 05:50:29;;;;;;;35.17;15.77;;;11.90;99.90;;;;;;5051014;28;20036;-68
2022/03/17 05:52:55;;;;;;;41.65;16.95;;;11.90;99.90;;;;;;5046691;28;20025;-68
2022/03/17 05:55:24;;;;;;;36.95;16.95;;;11.90;99.90;;;;;;5047048;28;20098;-68
2022/03/17 05:57:51;;;;;;;35.05;15.90;;;11.90;99.90;;;;;;5044322;28;20033;-68
2022/03/17 06:00:20;;;;;;;38.33;17.45;;;11.90;99.90;;;;;;5046521;28;20523;-66
2022/03/17 06:02:46;;;;;;;34.53;16.00;;;11.90;99.90;;;;;;5049326;28;20035;-67
2022/03/17 06:05:13;;;;;;;36.45;15.93;;;11.90;99.90;;;;;;5046891;28;20021;-71
2022/03/17 06:07:40;;;;;;;34.55;15.60;;;11.90;99.90;;;;;;5038530;28;20033;-70
2022/03/17 06:10:14;;;;;;;40.80;16.60;;;11.90;99.90;;;;;;5048103;28;20443;-69
2022/03/17 06:12:41;;;;;;;35.78;16.20;;;11.90;99.90;;;;;;5046042;28;20040;-69
2022/03/17 06:15:08;;;;;;;33.67;16.33;;;11.90;99.90;;;;;;5044884;28;20092;-69
2022/03/17 06:17:39;;;;;;;30.95;15.10;;;11.90;99.90;;;;;;5046607;28;20032;-69
2022/03/17 06:20:07;;;;;;;31.80;15.18;;;11.90;99.90;;;;;;5043789;28;20410;-69
2022/03/17 06:22:33;;;;;;;30.42;14.30;;;11.90;99.90;;;;;;5046240;28;20052;-70
2022/03/17 06:24:59;;;;;;;26.85;14.00;;;11.90;99.90;;;;;;5044359;28;20061;-69
2022/03/17 06:27:26;;;;;;;29.90;13.70;;;11.90;99.90;;;;;;5045680;28;20026;-70
2022/03/17 06:29:52;;;;;;;34.85;14.85;;;12.00;99.90;;;;;;5058322;28;20503;-70
2022/03/17 06:32:17;;;;;;;32.17;17.55;;;12.00;99.90;;;;;;5045968;28;20064;-69
2022/03/17 06:34:43;;;;;;;33.83;17.17;;;12.00;99.90;;;;;;5045337;28;20095;-69
2022/03/17 06:37:09;;;;;;;39.38;18.85;;;11.90;99.90;;;;;;5049144;28;20064;-70
2022/03/17 06:39:35;;;;;;;35.72;16.65;;;11.90;99.90;;;;;;5046568;28;20116;-70
2022/03/17 06:42:01;;;;;;;33.50;16.35;;;11.80;99.90;;;;;;5044424;28;20623;-70
2022/03/17 06:44:26;;;;;;;30.20;16.70;;;11.90;99.90;;;;;;5046154;28;20029;-70
2022/03/17 06:46:52;;;;;;;36.20;18.05;;;11.90;99.90;;;;;;5044090;28;20021;-69
2022/03/17 06:49:18;;;;;;;38.22;19.13;;;11.90;99.90;;;;;;5045253;28;20036;-70
2022/03/17 06:51:44;;;;;;;38.35;22.25;;;11.90;99.90;;;;;;5044648;28;20035;-68
2022/03/17 06:54:09;;;;;;;36.83;19.58;;;11.80;99.90;;;;;;5047798;28;20033;-66
2022/03/17 06:56:35;;;;;;;33.75;19.67;;;11.90;99.90;;;;;;5045589;28;20024;-67
2022/03/17 06:59:01;;;;;;;35.78;19.20;;;12.00;99.90;;;;;;5043194;28;20020;-67
2022/03/17 07:01:27;;;;;;;32.40;20.77;;;12.00;99.90;;;;;;5045094;28;20396;-67
2022/03/17 07:03:52;;;;;;;45.17;21.30;;;12.00;99.90;;;;;;5046903;28;20033;-65
2022/03/17 07:06:20;;;;;;;44.03;21.30;;;12.00;99.90;;;;;;5049720;28;20406;-67
2022/03/17 07:08:46;;;;;;;38.75;22.25;;;12.00;99.90;;;;;;5052752;28;20490;-67
2022/03/17 07:11:12;;;;;;;37.80;22.52;;;12.00;99.90;;;;;;5045466;28;20121;-67
2022/03/17 07:13:38;;;;;;;39.10;21.98;;;12.00;99.90;;;;;;5048770;28;20036;-67
2022/03/17 07:16:04;;;;;;;38.22;21.67;;;12.00;99.90;;;;;;5047137;28;20102;-67
2022/03/17 07:18:29;;;;;;;42.88;20.38;;;12.00;99.90;;;;;;5048655;28;20468;-67
2022/03/17 07:20:57;;;;;;;40.85;22.17;;;12.10;99.90;;;;;;5053462;28;20565;-67
2022/03/17 07:23:23;;;;;;;35.50;19.98;;;12.10;99.90;;;;;;5046865;28;20039;-68
2022/03/17 07:25:49;;;;;;;37.63;21.05;;;12.10;99.90;;;;;;5046472;28;20194;-67
2022/03/17 07:28:18;;;;;;;35.35;20.83;;;12.20;99.90;;;;;;5047427;28;20054;-67
2022/03/17 07:30:44;;;;;;;43.85;22.17;;;12.20;99.90;;;;;;5045292;28;20025;-66
2022/03/17 07:33:10;;;;;;;41.58;20.98;;;12.20;99.90;;;;;;5051164;28;20025;-67
2022/03/17 07:35:36;;;;;;;38.92;19.75;;;12.20;99.90;;;;;;5048741;28;20405;-68
2022/03/17 07:38:03;;;;;;;44.63;21.08;;;12.20;99.90;;;;;;5046804;28;20029;-68
2022/03/17 07:40:29;;;;;;;39.70;20.05;;;12.20;99.90;;;;;;5046399;28;20062;-69
2022/03/17 07:42:55;;;;;;;44.08;22.10;;;12.20;99.90;;;;;;5047071;28;20026;-70
2022/03/17 07:45:21;;;;;;;39.35;20.77;;;12.20;99.90;;;;;;5052796;28;20025;-66
2022/03/17 07:47:48;;;;;;;32.13;20.58;;;12.30;99.90;;;;;;5045224;28;20060;-70
2022/03/17 07:50:15;;;;;;;37.40;20.83;;;12.40;99.90;;;;;;5045840;28;20127;-68
2022/03/17 07:52:41;;;;;;;38.78;20.75;;;12.40;99.90;;;;;;5045346;28;20033;-68
2022/03/17 07:55:07;;;;;;;40.28;20.67;;;12.40;99.90;;;;;;5051967;28;20033;-68
2022/03/17 07:57:35;;;;;;;37.67;20.63;;;12.40;99.90;;;;;;5048605;28;20037;-68
2022/03/17 08:00:02;;;;;;;41.15;21.50;;;12.50;99.90;;;;;;5055222;28;20029;-68
2022/03/17 08:02:28;;;;;;;37.28;19.75;;;12.60;99.90;;;;;;5047309;28;20024;-68
2022/03/17 08:04:54;;;;;;;30.77;18.10;;;12.60;99.90;;;;;;5047278;28;20098;-69
2022/03/17 08:07:20;;;;;;;38.85;19.98;;;12.70;99.90;;;;;;5050220;28;20055;-68
2022/03/17 08:09:46;;;;;;;36.63;20.17;;;12.70;99.90;;;;;;5041870;28;20044;-68
2022/03/17 08:12:12;;;;;;;40.85;19.27;;;12.80;99.90;;;;;;5051362;28;20040;-68
2022/03/17 08:14:38;;;;;;;42.03;19.40;;;12.80;99.90;;;;;;5045128;28;20386;-68
2022/03/17 08:17:04;;;;;;;36.90;20.83;;;12.80;99.90;;;;;;5043389;28;20036;-68
2022/03/17 08:19:31;;;;;;;41.67;21.15;;;12.80;99.90;;;;;;5047149;28;20080;-67
2022/03/17 08:21:58;;;;;;;38.53;20.20;;;12.90;99.90;;;;;;5049047;28;20033;-66
2022/03/17 08:24:24;;;;;;;43.40;21.70;;;12.90;99.90;;;;;;5040491;28;20033;-67
2022/03/17 08:26:55;;;;;;;40.42;20.95;;;13.00;99.90;;;;;;5048354;28;20115;-67
2022/03/17 08:29:21;;;;;;;34.53;18.13;;;13.00;99.90;;;;;;5052641;28;20393;-66
2022/03/17 08:31:47;;;;;;;42.47;20.48;;;13.00;99.90;;;;;;5043966;28;20027;-66
2022/03/17 08:34:13;;;;;;;43.17;20.08;;;13.10;99.90;;;;;;5045022;28;20039;-66
2022/03/17 08:36:40;;;;;;;44.75;20.08;;;13.10;99.90;;;;;;5044604;28;20406;-67
2022/03/17 08:39:05;;;;;;;41.70;20.15;;;13.20;99.90;;;;;;5050904;28;20036;-67
2022/03/17 08:41:31;;;;;;;40.50;19.23;;;13.20;99.90;;;;;;5045615;28;20036;-66
2022/03/17 08:43:57;;;;;;;38.25;18.60;;;13.20;99.90;;;;;;5043133;28;20550;-67
2022/03/17 08:49:19;;;;;;;38.35;20.02;;;13.20;99.90;;;;;;5044318;28;20107;-67
2022/03/17 08:51:46;;;;;;;42.17;19.92;;;13.30;99.90;;;;;;5045729;28;20095;-69
2022/03/17 08:54:12;;;;;;;46.83;22.15;;;13.30;99.90;;;;;;5050319;28;20072;-67
2022/03/17 08:56:38;;;;;;;39.45;20.67;;;13.30;99.90;;;;;;5048298;28;20055;-68
2022/03/17 08:59:05;;;;;;;40.65;21.33;;;13.40;99.90;;;;;;5050987;28;20037;-67
2022/03/17 09:01:32;;;;;;;42.90;21.38;;;13.40;99.90;;;;;;5046683;28;20120;-68
2022/03/17 09:03:57;;;;;;;40.40;19.55;;;13.40;99.90;;;;;;5052153;28;20083;-66
2022/03/17 09:06:24;;;;;;;39.30;19.63;;;13.40;99.90;;;;;;5049958;28;20489;-67
2022/03/17 09:08:50;;;;;;;38.83;19.40;;;13.40;99.90;;;;;;5048874;28;20112;-68
2022/03/17 09:11:16;;;;;;;37.95;18.48;;;13.40;99.90;;;;;;5044141;28;20124;-69
2022/03/17 09:13:42;;;;;;;39.38;20.50;;;13.40;99.90;;;;;;5047157;28;20374;-68
2022/03/17 09:16:08;;;;;;;34.78;17.95;;;13.40;99.90;;;;;;5045420;28;20537;-69
2022/03/17 09:18:34;;;;;;;37.30;17.90;;;13.40;99.90;;;;;;5048203;28;20117;-68
2022/03/17 09:21:00;;;;;;;36.22;18.80;;;13.40;99.90;;;;;;5049213;28;20103;-69
2022/03/17 09:23:26;;;;;;;49.78;26.38;;;13.40;99.90;;;;;;5044735;28;20050;-69
2022/03/17 09:25:53;;;;;;;42.15;24.42;;;13.50;99.90;;;;;;5043822;28;20025;-69
2022/03/17 09:28:19;;;;;;;40.75;21.95;;;13.50;99.90;;;;;;5043856;28;20037;-68
2022/03/17 09:30:44;;;;;;;38.10;19.00;;;13.50;99.90;;;;;;5045026;28;20098;-68
2022/03/17 09:33:10;;;;;;;43.38;20.58;;;13.50;99.90;;;;;;5049101;28;20032;-68
2022/03/17 09:35:36;;;;;;;41.00;20.63;;;13.50;99.90;;;;;;5045651;28;20040;-69
2022/03/17 09:38:06;;;;;;;39.25;20.58;;;13.50;99.90;;;;;;5043490;28;20021;-69
2022/03/17 09:40:34;;;;;;;44.10;21.63;;;13.50;99.90;;;;;;5051293;28;20025;-68
2022/03/17 09:43:18;;;;;;;41.75;21.90;;;13.60;99.90;;;;;;5052304;28;20040;-68
2022/03/17 09:45:46;;;;;;;45.75;23.35;;;13.60;99.90;;;;;;5047733;28;20029;-67
2022/03/17 09:48:14;;;;;;;40.80;21.95;;;13.60;99.90;;;;;;5045817;28;20090;-67
2022/03/17 09:50:42;;;;;;;42.50;23.67;;;13.60;99.90;;;;;;5046723;28;20029;-68
2022/03/17 09:53:09;;;;;;;38.03;22.02;;;13.60;99.90;;;;;;5043959;28;20127;-68
2022/03/17 09:55:36;;;;;;;38.97;21.88;;;13.50;99.90;;;;;;5052876;28;20029;-68
2022/03/17 09:58:06;;;;;;;43.83;21.58;;;13.60;99.90;;;;;;5052897;28;20087;-68
2022/03/17 10:00:47;;;;;;;45.60;22.35;;;13.60;99.90;;;;;;5045217;28;20501;-69
2022/03/17 10:03:18;;;;;;;45.63;21.50;;;13.70;99.90;;;;;;5045547;28;20029;-69
2022/03/17 10:05:45;;;;;;;39.70;22.65;;;13.70;99.90;;;;;;5047131;28;20031;-68
2022/03/17 10:08:12;;;;;;;42.67;21.67;;;13.70;99.90;;;;;;5050918;28;20036;-68
2022/03/17 10:10:42;;;;;;;43.83;20.52;;;13.70;99.90;;;;;;5048420;28;20025;-68
2022/03/17 10:13:18;;;;;;;44.33;21.77;;;13.70;99.90;;;;;;5051512;28;20505;-68
2022/03/17 10:16:04;;;;;;;43.08;21.38;;;13.80;99.90;;;;;;5048146;28;20045;-68
2022/03/17 10:18:30;;;;;;;37.92;20.92;;;13.80;99.90;;;;;;5043148;28;20048;-68
2022/03/17 10:21:18;;;;;;;38.38;21.95;;;13.80;99.90;;;;;;5048626;28;20028;-68
2022/03/17 10:23:46;;;;;;;44.30;21.33;;;13.90;99.90;;;;;;5052595;28;20386;-69
2022/03/17 10:26:35;;;;;;;41.25;19.52;;;13.90;99.90;;;;;;5042113;28;20040;-68
2022/03/17 10:29:19;;;;;;;43.90;20.85;;;14.00;99.90;;;;;;5039037;28;20029;-69
2022/03/17 10:32:05;;;;;;;45.00;20.90;;;14.10;99.90;;;;;;5042235;28;20049;-70
2022/03/17 10:34:47;;;;;;;39.60;21.13;;;14.10;99.90;;;;;;5044243;28;20041;-71
2022/03/17 10:37:23;;;;;;;36.53;19.70;;;14.10;99.90;;;;;;5044872;28;20061;-69
2022/03/17 10:39:52;;;;;;;38.13;18.33;;;14.20;99.90;;;;;;5048877;28;20079;-70
2022/03/17 10:42:22;;;;;;;36.17;18.75;;;14.20;99.90;;;;;;5051930;28;20079;-70
2022/03/17 10:44:48;;;;;;;34.53;17.98;;;14.30;99.90;;;;;;5055129;28;20029;-70
2022/03/17 10:47:21;;;;;;;39.97;16.25;;;14.30;99.90;;;;;;5054751;28;20029;-70
2022/03/17 10:50:18;;;;;;;35.55;17.25;;;14.40;99.90;;;;;;5054393;28;20059;-70
2022/03/17 10:52:44;;;;;;;29.48;13.45;;;14.40;99.90;;;;;;5033980;28;20034;-70
2022/03/17 10:55:14;;;;;;;32.20;14.52;;;14.50;99.90;;;;;;5054331;28;20048;-70
2022/03/17 10:57:43;;;;;;;32.30;13.43;;;14.50;99.90;;;;;;5049486;28;20021;-72
2022/03/17 11:00:20;;;;;;;25.85;14.45;;;14.50;99.90;;;;;;5055207;28;20412;-69
2022/03/17 11:02:48;;;;;;;27.33;12.05;;;14.60;99.90;;;;;;5050761;28;20036;-68
2022/03/17 11:05:14;;;;;;;24.00;11.50;;;14.60;99.90;;;;;;5054741;28;20481;-69
2022/03/17 11:07:46;;;;;;;28.48;11.05;;;14.60;99.90;;;;;;5054167;28;20087;-69
2022/03/17 11:10:15;;;;;;;30.92;10.57;;;14.70;99.90;;;;;;5054368;28;20033;-69
2022/03/17 11:12:44;;;;;;;25.35;10.27;;;14.70;99.90;;;;;;5048958;28;20552;-69
2022/03/17 11:15:10;;;;;;;26.77;11.15;;;14.80;99.90;;;;;;5054506;28;20053;-69
2022/03/17 11:17:42;;;;;;;23.42;11.45;;;14.80;99.90;;;;;;5052963;28;20033;-69
2022/03/17 11:20:12;;;;;;;31.15;13.27;;;14.80;99.90;;;;;;5053794;28;20033;-69
2022/03/17 11:22:39;;;;;;;24.35;12.27;;;14.90;99.90;;;;;;5053452;28;20063;-69
2022/03/17 11:25:19;;;;;;;27.45;12.10;;;15.00;99.90;;;;;;5054152;28;20028;-69
2022/03/17 11:27:47;;;;;;;29.85;13.10;;;15.00;99.90;;;;;;5049538;28;20114;-69
2022/03/17 11:30:14;;;;;;;31.42;13.30;;;15.10;99.90;;;;;;5054618;28;20481;-69
2022/03/17 11:32:50;;;;;;;28.67;12.15;;;15.10;99.90;;;;;;5054449;28;20454;-67
2022/03/17 11:35:19;;;;;;;23.52;13.05;;;15.20;99.90;;;;;;5051355;28;20044;-68
2022/03/17 11:37:45;;;;;;;23.42;12.98;;;15.10;99.90;;;;;;5047544;28;20421;-68
2022/03/17 11:40:16;;;;;;;27.83;12.02;;;15.20;99.90;;;;;;5051414;28;20028;-67
2022/03/17 11:43:01;;;;;;;24.38;12.73;;;15.20;99.90;;;;;;5053319;28;20107;-67
2022/03/17 11:45:28;;;;;;;22.88;11.63;;;15.30;99.90;;;;;;5053677;28;20509;-68
2022/03/17 11:47:56;;;;;;;24.20;11.23;;;15.40;99.90;;;;;;5050647;28;20103;-67
2022/03/17 11:50:27;;;;;;;25.25;11.68;;;15.40;99.90;;;;;;5048995;28;20027;-72
2022/03/17 11:52:58;;;;;;;36.58;14.07;;;15.50;99.90;;;;;;5048402;28;20115;-70
2022/03/17 11:55:30;;;;;;;32.30;12.15;;;15.60;99.90;;;;;;5052134;28;20032;-70
2022/03/17 11:58:20;;;;;;;23.00;10.93;;;15.60;99.90;;;;;;5053231;28;20478;-69
2022/03/17 12:00:47;;;;;;;25.38;10.98;;;15.60;99.90;;;;;;5053288;28;20029;-70
2022/03/17 12:03:13;;;;;;;27.40;10.63;;;15.60;99.90;;;;;;5052245;28;20035;-70
2022/03/17 12:05:42;;;;;;;26.30;10.73;;;15.60;99.90;;;;;;5048840;28;20021;-71
2022/03/17 12:08:08;;;;;;;29.25;11.88;;;15.60;99.90;;;;;;5051825;28;20503;-71
2022/03/17 12:11:07;;;;;;;24.90;10.63;;;15.60;99.90;;;;;;5051253;28;20112;-71
2022/03/17 12:13:35;;;;;;;25.60;11.15;;;15.70;99.90;;;;;;5052696;28;20115;-71
2022/03/17 12:16:01;;;;;;;26.02;11.60;;;15.60;99.90;;;;;;5052020;28;20033;-71
2022/03/17 12:18:28;;;;;;;22.10;11.15;;;15.60;99.90;;;;;;5053647;28;20025;-69
2022/03/17 12:20:54;;;;;;;29.33;12.50;;;15.60;99.90;;;;;;5052494;28;20135;-67
2022/03/17 12:23:49;;;;;;;28.95;12.55;;;15.60;99.90;;;;;;5051919;28;20106;-67
2022/03/17 12:26:20;;;;;;;27.48;11.77;;;15.60;99.90;;;;;;5048323;28;20538;-67
2022/03/17 12:28:45;;;;;;;31.70;12.20;;;15.60;99.90;;;;;;5051803;28;20033;-67
2022/03/17 12:31:12;;;;;;;28.08;12.65;;;15.60;99.90;;;;;;5052218;28;20047;-66
2022/03/17 12:33:45;;;;;;;27.85;13.27;;;15.50;99.90;;;;;;5054320;28;20047;-68
2022/03/17 12:36:12;;;;;;;24.57;12.97;;;15.60;99.90;;;;;;5053179;28;20044;-68
2022/03/17 12:38:37;;;;;;;27.70;13.88;;;15.60;99.90;;;;;;5052947;28;20290;-68